Terminal Aerodrome Forecast
Issued by NWS

Home | Current Version | Previous Version | Text Only | Print | Product List | Glossary On
Versions: 1 2 3 4 5 6 7 8 9 10 11 12 13
000
FTUS46 KLOX 211700
TAFPMD
TAF
KPMD 211721Z 2118/2218 VRB03KT P6SM BKN150
     FM212100 28012KT P6SM BKN200
     FM220400 VRB03KT P6SM SCT200=

USA.gov is the U.S. government's official web portal to all federal, state and local government web resources and services.